Time;durP1;ratioP1;P1;durP2;ratioP2;P2;SDS_P1;SDS_P2;PMS_P1;PMS_P2;Temp;Humidity;BMP_temperature;BMP_pressure;BME280_temperature;BME280_humidity;BME280_pressure;Samples;Min_cycle;Max_cycle;Signal;HPM_P1;HPM_P2
2023/04/11 00:00:11;;;;;;;35.88;5.18;;;;;;;8.99;100.00;101052.31;5224384;28;20024;-77
2023/04/11 00:02:41;;;;;;;40.38;4.88;;;;;;;9.05;100.00;101039.16;5222217;28;20033;-77
2023/04/11 00:05:12;;;;;;;34.55;5.13;;;;;;;9.01;100.00;101037.78;5214908;28;20021;-78
2023/04/11 00:07:42;;;;;;;52.22;6.38;;;;;;;8.99;100.00;101037.09;5217906;28;20037;-77
2023/04/11 00:10:12;;;;;;;28.83;5.30;;;;;;;8.91;100.00;101046.88;5221121;28;20025;-77
2023/04/11 00:12:43;;;;;;;36.63;4.15;;;;;;;8.82;100.00;101041.41;5223981;28;20039;-77
2023/04/11 00:15:15;;;;;;;33.00;4.53;;;;;;;8.78;100.00;101058.75;5221134;28;20028;-77
2023/04/11 00:17:45;;;;;;;34.00;5.65;;;;;;;8.75;100.00;101052.88;5224570;28;20032;-77
2023/04/11 00:20:16;;;;;;;32.40;4.95;;;;;;;8.74;100.00;101053.88;5204004;28;20021;-76
2023/04/11 00:22:46;;;;;;;28.58;4.75;;;;;;;8.68;100.00;101052.63;5223193;28;20025;-75
2023/04/11 00:25:17;;;;;;;45.20;5.65;;;;;;;8.68;100.00;101051.78;5221465;28;20029;-75
2023/04/11 00:27:47;;;;;;;33.17;4.63;;;;;;;8.66;100.00;101051.09;5220405;28;20029;-75
2023/04/11 00:30:18;;;;;;;38.60;4.75;;;;;;;8.63;100.00;101043.34;5184042;28;20108;-76
2023/04/11 00:32:48;;;;;;;33.95;4.82;;;;;;;8.63;100.00;101046.03;5222596;28;20025;-76
2023/04/11 00:35:19;;;;;;;39.72;4.05;;;;;;;8.62;100.00;101049.69;5212712;28;20092;-76
2023/04/11 00:37:54;;;;;;;32.95;5.47;;;;;;;8.61;100.00;101042.69;5214242;28;20029;-75
2023/04/11 00:40:25;;;;;;;35.20;4.95;;;;;;;8.63;100.00;101056.72;5196863;28;20025;-76
2023/04/11 00:42:55;;;;;;;37.08;6.38;;;;;;;8.64;100.00;101063.78;5217144;28;20389;-75
2023/04/11 00:45:27;;;;;;;43.88;6.18;;;;;;;8.68;100.00;101057.13;5212146;28;20057;-76
2023/04/11 00:47:58;;;;;;;45.88;5.75;;;;;;;8.70;100.00;101065.84;5216002;28;20633;-75
2023/04/11 00:50:28;;;;;;;46.35;4.72;;;;;;;8.68;100.00;101065.97;5216480;28;20024;-76
2023/04/11 00:52:59;;;;;;;32.55;4.97;;;;;;;8.67;100.00;101064.31;5210578;28;20029;-75
2023/04/11 00:55:29;;;;;;;42.20;6.15;;;;;;;8.63;100.00;101060.25;5216182;28;20024;-76
2023/04/11 00:58:01;;;;;;;49.65;5.00;;;;;;;8.60;100.00;101059.72;5210872;28;20147;-76
2023/04/11 01:00:34;;;;;;;28.98;4.10;;;;;;;8.56;100.00;101046.63;5214410;28;20024;-76
2023/04/11 01:03:04;;;;;;;38.63;6.68;;;;;;;8.55;100.00;101042.28;5213139;28;20041;-75
2023/04/11 01:05:35;;;;;;;38.70;4.97;;;;;;;8.55;100.00;101036.09;5221374;28;20033;-75
2023/04/11 01:08:07;;;;;;;26.15;3.75;;;;;;;8.55;100.00;101039.59;5212381;28;20482;-75
2023/04/11 01:10:40;;;;;;;40.00;4.50;;;;;;;8.60;100.00;101043.66;5189446;28;20097;-75
2023/04/11 01:13:11;;;;;;;31.30;4.28;;;;;;;8.54;100.00;101062.00;5206143;28;20076;-75
2023/04/11 01:15:42;;;;;;;38.85;5.68;;;;;;;8.52;100.00;101063.94;5204948;28;20045;-76
2023/04/11 01:18:14;;;;;;;36.67;4.82;;;;;;;8.53;100.00;101070.13;5211239;28;20024;-75
2023/04/11 01:20:44;;;;;;;48.75;5.10;;;;;;;8.51;100.00;101072.13;5188720;28;20500;-76
2023/04/11 01:23:22;;;;;;;41.53;4.63;;;;;;;8.46;100.00;101083.28;5209338;28;20112;-75
2023/04/11 01:25:52;;;;;;;37.15;4.47;;;;;;;8.47;100.00;101071.56;5188525;28;20022;-75
2023/04/11 01:28:23;;;;;;;36.20;4.45;;;;;;;8.45;100.00;101078.06;5206243;28;20474;-76
2023/04/11 01:30:53;;;;;;;39.13;5.82;;;;;;;8.38;100.00;101067.09;5205469;28;20025;-76
2023/04/11 01:33:24;;;;;;;42.50;5.50;;;;;;;8.36;100.00;101081.59;5218913;28;20021;-76
2023/04/11 01:35:54;;;;;;;35.15;5.15;;;;;;;8.31;100.00;101065.97;5216931;28;20025;-75
2023/04/11 01:38:25;;;;;;;37.88;5.72;;;;;;;8.28;100.00;101082.31;5213653;28;20021;-75
2023/04/11 01:40:57;;;;;;;44.65;4.60;;;;;;;8.32;100.00;101087.22;5212881;28;20575;-75
2023/04/11 01:43:27;;;;;;;23.67;3.80;;;;;;;8.34;100.00;101091.59;5212963;28;20057;-76
2023/04/11 01:45:58;;;;;;;37.63;5.00;;;;;;;8.36;100.00;101101.19;5196420;28;20033;-75
2023/04/11 01:48:32;;;;;;;45.85;4.32;;;;;;;8.41;100.00;101076.69;5193684;28;20040;-75
2023/04/11 01:51:02;;;;;;;29.98;3.90;;;;;;;8.41;100.00;101080.19;5222206;28;20573;-75
2023/04/11 01:53:33;;;;;;;49.25;6.93;;;;;;;8.42;100.00;101089.06;5210146;28;20148;-75
2023/04/11 01:56:13;;;;;;;32.35;5.40;;;;;;;8.42;100.00;101091.72;5217123;28;20025;-76
2023/04/11 01:58:44;;;;;;;43.85;4.78;;;;;;;8.40;100.00;101093.72;5216207;28;20517;-76
2023/04/11 02:01:17;;;;;;;37.58;4.45;;;;;;;8.37;100.00;101094.84;5213129;28;20406;-76
2023/04/11 02:03:47;;;;;;;22.30;3.60;;;;;;;8.32;100.00;101097.91;5213304;28;20024;-75
2023/04/11 02:06:18;;;;;;;26.73;4.28;;;;;;;8.26;100.00;101100.34;5219425;28;20029;-75
2023/04/11 02:08:48;;;;;;;35.88;4.60;;;;;;;8.18;100.00;101109.09;5219185;28;20397;-75
2023/04/11 02:11:19;;;;;;;26.35;4.05;;;;;;;8.18;100.00;101108.22;5215985;28;20030;-75
2023/04/11 02:13:51;;;;;;;31.38;3.53;;;;;;;8.15;100.00;101113.88;5219545;28;20029;-75
2023/04/11 02:16:24;;;;;;;31.38;4.57;;;;;;;8.09;100.00;101125.13;5201296;28;20037;-75
2023/04/11 02:18:55;;;;;;;36.88;4.70;;;;;;;8.04;100.00;101121.06;5224428;28;20040;-75
2023/04/11 02:21:27;;;;;;;30.70;4.38;;;;;;;8.05;100.00;101116.56;5225162;28;20029;-75
2023/04/11 02:23:57;;;;;;;40.00;5.25;;;;;;;8.06;100.00;101126.25;5223687;28;20025;-75
2023/04/11 02:26:28;;;;;;;32.08;4.40;;;;;;;8.03;100.00;101127.41;5222522;28;20029;-75
2023/04/11 02:28:58;;;;;;;33.53;5.65;;;;;;;7.99;100.00;101128.66;5220945;28;20025;-75
2023/04/11 02:31:29;;;;;;;37.50;5.07;;;;;;;7.97;100.00;101125.28;5206221;28;20021;-75
2023/04/11 02:33:59;;;;;;;41.08;5.57;;;;;;;7.96;100.00;101120.91;5222691;28;20094;-75
2023/04/11 02:36:30;;;;;;;43.30;4.03;;;;;;;7.91;100.00;101128.53;5222201;28;20559;-75
2023/04/11 02:39:00;;;;;;;33.88;4.20;;;;;;;7.88;100.00;101126.16;5218759;28;20052;-75
2023/04/11 02:41:31;;;;;;;32.53;4.20;;;;;;;7.86;100.00;101121.91;5222069;28;20074;-75
2023/04/11 02:44:01;;;;;;;35.25;6.03;;;;;;;7.84;100.00;101122.06;5223917;28;20032;-75
2023/04/11 02:46:32;;;;;;;32.90;4.90;;;;;;;7.81;100.00;101113.50;5206111;28;20032;-75
2023/04/11 02:49:03;;;;;;;36.30;6.30;;;;;;;7.77;100.00;101110.25;5220836;28;20052;-75
2023/04/11 02:51:34;;;;;;;30.17;3.90;;;;;;;7.77;100.00;101126.28;5218947;28;20040;-75
2023/04/11 02:54:05;;;;;;;28.92;3.65;;;;;;;7.74;100.00;101124.75;5222824;28;20021;-75
2023/04/11 02:56:37;;;;;;;25.45;4.45;;;;;;;7.75;100.00;101129.09;5218993;28;20087;-75
2023/04/11 02:59:08;;;;;;;39.03;6.47;;;;;;;7.75;100.00;101144.28;5222950;28;20107;-75
2023/04/11 03:01:38;;;;;;;24.15;3.47;;;;;;;7.76;100.00;101149.47;5219073;28;20031;-75
2023/04/11 03:04:09;;;;;;;28.55;4.18;;;;;;;7.72;100.00;101144.53;5222974;28;20112;-75
2023/04/11 03:06:39;;;;;;;35.25;4.10;;;;;;;7.69;100.00;101158.19;5216063;28;20096;-76
2023/04/11 03:09:10;;;;;;;31.77;4.90;;;;;;;7.64;100.00;101152.44;5216079;28;20079;-75
2023/04/11 03:11:41;;;;;;;32.28;4.45;;;;;;;7.64;100.00;101165.78;5217324;28;20029;-75
2023/04/11 03:14:12;;;;;;;25.50;3.42;;;;;;;7.64;100.00;101163.13;5222618;28;20444;-75
2023/04/11 03:16:42;;;;;;;37.38;5.90;;;;;;;7.67;100.00;101168.16;5219280;28;20021;-75
2023/04/11 03:19:12;;;;;;;30.92;3.42;;;;;;;7.66;100.00;101167.31;5221503;28;20025;-75
2023/04/11 03:21:43;;;;;;;33.50;4.63;;;;;;;7.65;100.00;101167.47;5221046;28;20071;-75
2023/04/11 03:24:13;;;;;;;28.65;4.20;;;;;;;7.65;100.00;101167.47;5195665;28;20124;-75
2023/04/11 03:26:44;;;;;;;41.97;4.20;;;;;;;7.63;100.00;101169.41;5208897;28;20482;-75
2023/04/11 03:29:15;;;;;;;29.00;3.70;;;;;;;7.58;100.00;101166.31;5193788;28;20109;-75
2023/04/11 03:31:45;;;;;;;35.85;4.40;;;;;;;7.54;100.00;101168.44;5215525;28;20478;-75
2023/04/11 03:34:16;;;;;;;32.70;4.05;;;;;;;7.46;100.00;101165.63;5199815;28;20032;-75
2023/04/11 03:36:47;;;;;;;22.40;3.72;;;;;;;7.45;100.00;101170.13;5206186;28;20024;-75
2023/04/11 03:39:18;;;;;;;29.02;3.72;;;;;;;7.46;100.00;101177.13;5206009;28;20421;-75
2023/04/11 03:41:49;;;;;;;26.50;4.38;;;;;;;7.47;100.00;101181.47;5213026;28;20039;-75
2023/04/11 03:44:20;;;;;;;28.92;3.70;;;;;;;7.45;100.00;101172.78;5223844;28;20021;-75
2023/04/11 03:46:50;;;;;;;35.63;4.95;;;;;;;7.43;100.00;101173.88;5204977;28;20025;-75
2023/04/11 03:49:21;;;;;;;25.30;4.25;;;;;;;7.38;100.00;101173.44;5206041;28;20025;-75
2023/04/11 03:51:51;;;;;;;42.00;9.57;;;;;;;7.35;100.00;101187.94;5209902;28;20024;-76
2023/04/11 03:54:21;;;;;;;34.80;8.27;;;;;;;7.37;100.00;101187.78;5208561;28;20021;-75
2023/04/11 03:56:52;;;;;;;44.15;9.00;;;;;;;7.39;100.00;101185.84;5204765;28;20053;-75
2023/04/11 03:59:23;;;;;;;55.28;16.33;;;;;;;7.37;100.00;101193.13;5205411;28;20112;-75
2023/04/11 04:01:53;;;;;;;106.03;26.67;;;;;;;7.33;100.00;101200.59;5204587;28;20330;-75
2023/04/11 04:04:23;;;;;;;46.13;13.02;;;;;;;7.31;100.00;101204.34;5187825;28;20512;-75
2023/04/11 04:06:55;;;;;;;29.08;6.70;;;;;;;7.32;100.00;101204.22;5204257;28;20060;-75
2023/04/11 04:09:26;;;;;;;34.83;4.82;;;;;;;7.31;100.00;101210.53;5217224;28;20033;-75
2023/04/11 04:11:56;;;;;;;30.58;4.00;;;;;;;7.27;100.00;101206.44;5201305;28;20024;-75
2023/04/11 04:14:26;;;;;;;27.42;4.15;;;;;;;7.25;100.00;101206.59;5217055;28;20082;-75
2023/04/11 04:16:57;;;;;;;33.47;4.50;;;;;;;7.25;100.00;101206.59;5217397;28;20092;-75
2023/04/11 04:19:27;;;;;;;32.83;3.88;;;;;;;7.28;100.00;101216.16;5219220;28;20112;-75
2023/04/11 04:21:58;;;;;;;20.83;5.05;;;;;;;7.29;100.00;101207.16;5202562;28;20396;-75
2023/04/11 04:24:28;;;;;;;29.35;4.25;;;;;;;7.32;100.00;101212.22;5220154;28;20441;-75
2023/04/11 04:26:59;;;;;;;20.38;3.88;;;;;;;7.26;100.00;101220.78;5219251;28;20025;-75
2023/04/11 04:29:36;;;;;;;28.90;4.25;;;;;;;7.20;100.00;101214.16;5220108;28;20024;-75
2023/04/11 04:32:09;;;;;;;27.73;4.30;;;;;;;7.16;100.00;101226.06;5216377;28;20052;-75
2023/04/11 04:34:45;;;;;;;28.17;3.75;;;;;;;7.11;100.00;101224.78;5223939;28;20016;-75
2023/04/11 04:37:21;;;;;;;14.43;3.38;;;;;;;7.08;100.00;101227.72;5215847;28;20029;-75
2023/04/11 04:39:53;;;;;;;37.97;4.10;;;;;;;7.04;100.00;101229.84;5208504;28;20022;-75
2023/04/11 04:42:26;;;;;;;21.08;3.67;;;;;;;7.02;100.00;101229.09;5223670;28;20083;-75
2023/04/11 04:44:56;;;;;;;28.60;4.80;;;;;;;7.00;100.00;101233.75;5227067;28;20021;-75
2023/04/11 04:47:31;;;;;;;26.80;7.70;;;;;;;7.00;100.00;101239.91;5218540;28;20101;-75
2023/04/11 04:50:02;;;;;;;38.97;7.20;;;;;;;6.97;100.00;101247.34;5218403;28;20112;-76
2023/04/11 04:52:33;;;;;;;37.75;7.47;;;;;;;6.95;100.00;101241.31;5225003;28;20059;-75
2023/04/11 04:55:04;;;;;;;25.33;5.20;;;;;;;6.93;100.00;101249.44;5198467;28;20036;-75
2023/04/11 04:57:34;;;;;;;21.65;3.75;;;;;;;6.90;100.00;101248.84;5191186;28;20433;-75
2023/04/11 05:00:10;;;;;;;25.88;3.92;;;;;;;6.86;100.00;101250.94;5208938;28;20029;-75
2023/04/11 05:02:41;;;;;;;28.67;4.18;;;;;;;6.89;100.00;101245.34;5210015;28;20057;-75
2023/04/11 05:05:12;;;;;;;31.90;4.00;;;;;;;6.90;100.00;101251.53;5212724;28;20060;-75
2023/04/11 05:07:44;;;;;;;22.00;3.75;;;;;;;6.87;100.00;101257.94;5208218;28;20486;-75
2023/04/11 05:10:14;;;;;;;27.05;3.92;;;;;;;6.87;100.00;101251.78;5218025;28;20031;-75
2023/04/11 05:12:45;;;;;;;30.08;4.00;;;;;;;6.86;100.00;101264.28;5220498;28;20481;-75
2023/04/11 05:15:15;;;;;;;31.40;7.75;;;;;;;6.87;100.00;101270.44;5217325;28;20036;-75
2023/04/11 05:17:46;;;;;;;25.23;4.00;;;;;;;6.89;100.00;101266.69;5219284;28;20096;-75
2023/04/11 05:20:16;;;;;;;25.60;4.28;;;;;;;6.88;100.00;101266.81;5216546;28;20053;-75
2023/04/11 05:22:48;;;;;;;27.00;3.90;;;;;;;6.89;100.00;101279.19;5221517;28;20025;-75
2023/04/11 05:25:19;;;;;;;30.52;5.43;;;;;;;6.88;100.00;101272.16;5217419;28;20021;-74
2023/04/11 05:27:49;;;;;;;29.20;3.67;;;;;;;6.86;100.00;101274.94;5216326;28;20371;-75
2023/04/11 05:30:19;;;;;;;27.83;3.67;;;;;;;6.87;100.00;101279.28;5219500;28;20033;-76
2023/04/11 05:32:50;;;;;;;30.60;3.35;;;;;;;6.92;100.00;101277.06;5215946;28;20029;-76
2023/04/11 05:35:21;;;;;;;22.90;3.80;;;;;;;6.97;100.00;101285.53;5219703;28;20116;-75
2023/04/11 05:37:51;;;;;;;28.55;5.80;;;;;;;7.02;100.00;101285.13;5218174;28;20390;-75
2023/04/11 05:40:21;;;;;;;30.63;3.13;;;;;;;7.05;100.00;101276.88;5217778;28;20025;-74
2023/04/11 05:42:52;;;;;;;24.35;2.95;;;;;;;7.08;100.00;101278.41;5216742;28;20112;-75
2023/04/11 05:45:22;;;;;;;34.10;3.50;;;;;;;7.12;100.00;101285.19;5198206;28;20057;-75
2023/04/11 05:47:53;;;;;;;29.80;4.95;;;;;;;7.15;100.00;101292.94;5196838;28;20029;-75
2023/04/11 05:50:25;;;;;;;21.35;2.90;;;;;;;7.16;100.00;101291.94;5221069;28;20025;-75
2023/04/11 05:52:56;;;;;;;19.45;3.30;;;;;;;7.39;100.00;101295.28;5219972;28;20108;-75
2023/04/11 05:55:26;;;;;;;21.30;3.58;;;;;;;7.99;100.00;101298.81;5217503;28;20445;-75
2023/04/11 05:57:56;;;;;;;24.92;3.50;;;;;;;8.35;100.00;101288.44;5221133;28;20024;-75
2023/04/11 06:00:29;;;;;;;21.17;3.40;;;;;;;8.92;100.00;101292.03;5215774;28;20033;-75
2023/04/11 06:03:01;;;;;;;22.63;3.80;;;;;;;9.08;100.00;101303.81;5221603;28;20885;-75
2023/04/11 06:05:32;;;;;;;20.10;3.80;;;;;;;9.42;100.00;101303.28;5198723;28;20112;-75
2023/04/11 06:08:04;;;;;;;23.10;3.40;;;;;;;10.00;100.00;101304.81;5202020;28;20075;-75
2023/04/11 06:10:34;;;;;;;27.33;3.97;;;;;;;10.25;100.00;101309.47;5200738;28;20045;-75
2023/04/11 06:13:05;;;;;;;21.15;4.70;;;;;;;10.47;100.00;101304.63;5204075;28;20036;-75
2023/04/11 06:15:35;;;;;;;17.65;3.92;;;;;;;10.96;100.00;101305.00;5190817;28;20394;-75
2023/04/11 06:18:06;;;;;;;15.00;3.15;;;;;;;10.90;100.00;101306.47;5215288;28;20029;-75
2023/04/11 06:20:36;;;;;;;29.02;3.95;;;;;;;10.74;100.00;101309.03;5216224;28;20486;-75
2023/04/11 06:23:07;;;;;;;22.52;3.38;;;;;;;11.11;100.00;101303.41;5210343;28;20584;-75
2023/04/11 06:25:37;;;;;;;15.23;3.00;;;;;;;11.26;100.00;101315.25;5208704;28;20371;-75
2023/04/11 06:28:08;;;;;;;23.38;3.40;;;;;;;11.54;100.00;101321.25;5189147;28;20029;-75
2023/04/11 06:30:38;;;;;;;20.98;2.95;;;;;;;11.91;100.00;101322.78;5192633;28;20047;-75
2023/04/11 06:33:09;;;;;;;16.95;3.10;;;;;;;11.83;100.00;101325.44;5208570;28;20029;-75
2023/04/11 06:35:39;;;;;;;15.18;2.75;;;;;;;11.71;100.00;101332.94;5211003;28;20021;-75
2023/04/11 06:38:10;;;;;;;21.13;3.50;;;;;;;11.55;100.00;101324.81;5200804;28;20029;-75
2023/04/11 06:40:40;;;;;;;17.58;3.45;;;;;;;11.92;100.00;101337.91;5216265;28;20017;-75
2023/04/11 06:43:11;;;;;;;13.43;2.85;;;;;;;11.84;100.00;101336.03;5219355;28;20025;-75
2023/04/11 06:45:41;;;;;;;23.63;3.17;;;;;;;12.21;100.00;101340.19;5219240;28;20062;-75
2023/04/11 06:48:12;;;;;;;22.13;3.65;;;;;;;12.31;100.00;101346.25;5211923;28;20112;-75
2023/04/11 06:50:44;;;;;;;20.10;3.05;;;;;;;12.35;100.00;101341.38;5217101;28;20056;-75
2023/04/11 06:53:15;;;;;;;19.48;3.60;;;;;;;12.32;100.00;101336.34;5195224;28;20030;-75
2023/04/11 06:56:00;;;;;;;10.85;2.47;;;;;;;12.42;100.00;101339.72;5216040;28;20032;-75
2023/04/11 06:58:31;;;;;;;15.98;2.60;;;;;;;12.21;100.00;101340.19;5215402;28;20032;-75
2023/04/11 07:01:01;;;;;;;16.92;2.25;;;;;;;12.04;100.00;101351.91;5211876;28;20053;-75
2023/04/11 07:03:32;;;;;;;25.75;4.43;;;;;;;12.36;100.00;101360.06;5223457;28;20029;-75
2023/04/11 07:06:03;;;;;;;20.10;3.95;;;;;;;12.41;100.00;101357.72;5212934;28;20477;-75
2023/04/11 07:08:33;;;;;;;22.90;3.05;;;;;;;12.47;100.00;101369.66;5217433;28;20020;-75
2023/04/11 07:11:04;;;;;;;22.90;3.58;;;;;;;12.71;100.00;101366.16;5215674;28;20500;-75
2023/04/11 07:13:34;;;;;;;17.13;2.83;;;;;;;12.72;100.00;101365.16;5220769;28;20073;-74
2023/04/11 07:16:05;;;;;;;21.02;3.10;;;;;;;13.20;100.00;101364.28;5222726;28;20009;-74
2023/04/11 07:18:36;;;;;;;20.08;2.85;;;;;;;12.88;100.00;101373.22;5233444;28;20379;-74
2023/04/11 07:21:12;;;;;;;20.25;3.17;;;;;;;12.91;100.00;101374.75;5222921;28;20052;-75
2023/04/11 07:23:42;;;;;;;16.15;2.78;;;;;;;13.13;100.00;101379.44;5222891;28;20029;-75
2023/04/11 07:26:13;;;;;;;19.35;3.30;;;;;;;13.32;100.00;101383.66;5222577;28;20047;-75
2023/04/11 07:28:44;;;;;;;16.63;2.80;;;;;;;13.73;100.00;101392.47;5218543;28;20036;-74
2023/04/11 07:31:16;;;;;;;15.85;2.92;;;;;;;14.00;100.00;101393.03;5212537;28;20386;-75
2023/04/11 07:33:46;;;;;;;13.80;2.78;;;;;;;14.29;100.00;101396.94;5203237;28;20037;-75
2023/04/11 07:36:17;;;;;;;14.15;3.28;;;;;;;14.22;100.00;101403.06;5222845;28;20428;-75
2023/04/11 07:38:47;;;;;;;15.90;2.88;;;;;;;14.57;100.00;101406.28;5224368;28;20043;-75
2023/04/11 07:41:18;;;;;;;19.17;2.85;;;;;;;13.72;100.00;101404.28;5224923;28;20112;-75
2023/04/11 07:43:50;;;;;;;16.88;2.78;;;;;;;12.72;100.00;101392.06;5223263;28;20035;-75
2023/04/11 07:46:20;;;;;;;11.63;2.90;;;;;;;13.12;100.00;101393.91;5224464;28;20485;-75
2023/04/11 07:48:51;;;;;;;22.60;3.10;;;;;;;13.34;100.00;101397.78;5207063;28;20025;-75
2023/04/11 07:51:21;;;;;;;14.85;2.95;;;;;;;13.24;100.00;101388.19;5224088;28;20433;-74
2023/04/11 07:53:53;;;;;;;12.40;3.03;;;;;;;13.26;100.00;101395.13;5224744;28;20052;-75
2023/04/11 07:56:23;;;;;;;14.43;3.20;;;;;;;13.03;100.00;101389.53;5190095;28;20025;-74
2023/04/11 07:58:55;;;;;;;14.90;2.58;;;;;;;13.28;100.00;101395.78;5224795;28;20075;-74
2023/04/11 08:01:26;;;;;;;15.70;2.63;;;;;;;13.42;100.00;101389.69;5207046;28;20059;-74
2023/04/11 08:03:56;;;;;;;13.57;2.33;;;;;;;14.01;100.00;101386.66;5224502;28;20028;-74
2023/04/11 08:06:27;;;;;;;15.82;2.85;;;;;;;13.90;100.00;101392.41;5206324;28;20036;-74
2023/04/11 08:08:59;;;;;;;13.80;2.60;;;;;;;14.46;100.00;101398.56;5206787;28;20049;-74
2023/04/11 08:11:30;;;;;;;9.52;1.98;;;;;;;15.33;100.00;101395.53;5224388;28;20105;-74
2023/04/11 08:14:01;;;;;;;10.10;2.40;;;;;;;14.80;100.00;101397.31;5212800;28;20116;-74
2023/04/11 08:16:34;;;;;;;10.95;2.20;;;;;;;14.80;100.00;101403.56;5211014;28;20057;-74
2023/04/11 08:19:05;;;;;;;13.55;2.60;;;;;;;15.66;100.00;101396.91;5201955;28;20063;-74
2023/04/11 08:21:36;;;;;;;9.82;2.45;;;;;;;15.49;100.00;101398.06;5213151;28;20029;-75
2023/04/11 08:24:07;;;;;;;8.77;2.25;;;;;;;15.13;100.00;101406.84;5199254;28;20025;-75
2023/04/11 08:26:38;;;;;;;10.63;2.03;;;;;;;14.83;100.00;101408.63;5214631;28;20052;-74
2023/04/11 08:29:10;;;;;;;11.40;2.20;;;;;;;13.90;100.00;101413.97;5208166;28;20553;-75
2023/04/11 08:31:43;;;;;;;11.88;2.60;;;;;;;13.72;100.00;101423.16;5214277;28;20025;-74
2023/04/11 08:34:13;;;;;;;12.20;2.13;;;;;;;13.76;100.00;101415.56;5214970;28;20025;-74
2023/04/11 08:36:44;;;;;;;15.63;2.67;;;;;;;13.92;100.00;101414.66;5179723;28;20021;-74
2023/04/11 08:39:14;;;;;;;17.60;2.80;;;;;;;13.46;100.00;101407.22;5217669;28;20512;-74
2023/04/11 08:41:46;;;;;;;14.57;2.38;;;;;;;12.84;100.00;101416.81;5199956;28;20784;-75
2023/04/11 08:44:16;;;;;;;13.35;2.30;;;;;;;13.05;100.00;101417.16;5219900;28;20049;-74
2023/04/11 08:46:47;;;;;;;12.30;2.13;;;;;;;13.13;100.00;101419.84;5221538;28;20052;-74
2023/04/11 08:49:17;;;;;;;17.13;2.63;;;;;;;13.59;100.00;101427.38;5216092;28;20029;-75
2023/04/11 08:51:52;;;;;;;14.48;2.95;;;;;;;13.73;100.00;101429.38;5219838;28;20123;-75
2023/04/11 08:54:22;;;;;;;11.35;2.22;;;;;;;14.17;100.00;101426.19;5199746;28;20177;-75
2023/04/11 08:56:53;;;;;;;13.70;1.88;;;;;;;15.01;100.00;101422.66;5200798;28;20025;-74
2023/04/11 08:59:23;;;;;;;9.80;2.05;;;;;;;15.02;100.00;101427.03;5218723;28;20060;-74
2023/04/11 09:02:07;;;;;;;31.65;13.48;;;;;;;14.64;100.00;101428.81;5200632;28;20100;-74
2023/04/11 09:04:40;;;;;;;11.70;5.80;;;;;;;14.84;100.00;101429.19;5221312;28;20073;-74
2023/04/11 09:07:10;;;;;;;8.30;2.88;;;;;;;15.32;100.00;101437.94;5223819;28;20548;-74
2023/04/11 09:09:42;;;;;;;12.55;2.03;;;;;;;15.55;100.00;101435.16;5207179;28;20048;-75
2023/04/11 09:12:12;;;;;;;11.15;2.03;;;;;;;15.12;100.00;101442.16;5210541;28;20101;-74
2023/04/11 09:14:43;;;;;;;11.32;2.30;;;;;;;14.96;100.00;101443.97;5189120;28;20044;-74
2023/04/11 09:17:15;;;;;;;17.13;2.85;;;;;;;14.28;100.00;101438.47;5206070;28;20066;-74
2023/04/11 09:19:46;;;;;;;15.13;2.42;;;;;;;13.89;100.00;101433.88;5204624;28;20044;-74
2023/04/11 09:22:16;;;;;;;13.70;2.40;;;;;;;13.79;100.00;101427.84;5216904;28;20021;-74
2023/04/11 09:25:01;;;;;;;11.68;2.78;;;;;;;13.99;100.00;101438.06;5223853;28;20418;-74
2023/04/11 09:27:31;;;;;;;10.27;1.90;;;;;;;14.32;100.00;101437.94;5212103;28;20075;-74
2023/04/11 09:30:04;;;;;;;10.13;1.95;;;;;;;14.88;100.00;101445.88;5208708;28;20018;-74
2023/04/11 09:32:35;;;;;;;15.10;1.55;;;;;;;14.53;100.00;101452.69;5209927;28;20026;-74
2023/04/11 09:35:27;;;;;;;14.15;2.25;;;;;;;15.14;100.00;101443.66;5209806;28;20393;-75
2023/04/11 09:37:58;;;;;;;11.02;1.67;;;;;;;15.67;100.00;101427.47;5192496;28;20030;-74
2023/04/11 09:40:30;;;;;;;7.80;1.40;;;;;;;15.66;100.00;101423.94;5223349;28;20021;-74
2023/04/11 09:43:03;;;;;;;8.73;1.70;;;;;;;14.97;100.00;101434.84;5219442;28;20630;-74
2023/04/11 09:45:33;;;;;;;8.43;1.70;;;;;;;14.48;100.00;101431.63;5212968;28;20040;-74
2023/04/11 09:48:04;;;;;;;5.28;1.20;;;;;;;14.23;100.00;101437.13;5218005;28;20033;-74
2023/04/11 09:50:35;;;;;;;7.65;1.40;;;;;;;14.56;100.00;101437.00;5224046;28;20024;-74
2023/04/11 09:53:06;;;;;;;9.90;1.60;;;;;;;14.66;100.00;101437.59;5223749;28;20062;-74
2023/04/11 09:55:38;;;;;;;9.98;1.63;;;;;;;14.55;100.00;101440.69;5222637;28;20024;-74
2023/04/11 09:58:13;;;;;;;6.75;1.52;;;;;;;14.61;100.00;101428.34;5219138;28;20024;-74
2023/04/11 10:00:47;;;;;;;3.95;1.30;;;;;;;14.48;100.00;101439.72;5219913;28;20668;-74
2023/04/11 10:03:20;;;;;;;8.98;2.20;;;;;;;14.53;100.00;101437.34;5222248;28;20032;-74
2023/04/11 10:05:53;;;;;;;7.28;1.70;;;;;;;14.45;100.00;101434.63;5217922;28;20156;-74
2023/04/11 10:08:40;;;;;;;10.55;2.03;;;;;;;13.86;100.00;101412.66;5227060;28;20051;-74
2023/04/11 10:11:13;;;;;;;8.50;1.73;;;;;;;13.47;100.00;101419.66;5218697;28;20064;-75
2023/04/11 10:13:45;;;;;;;11.48;2.10;;;;;;;13.32;100.00;101421.38;5202161;28;20044;-75
2023/04/11 10:16:18;;;;;;;8.77;2.33;;;;;;;13.11;100.00;101413.78;5214080;28;20028;-74
2023/04/11 10:18:49;;;;;;;15.13;1.80;;;;;;;13.50;100.00;101415.78;5198667;28;20104;-75
2023/04/11 10:21:36;;;;;;;6.50;1.15;;;;;;;13.42;100.00;101415.81;5216828;28;20701;-75
2023/04/11 10:24:21;;;;;;;12.05;1.90;;;;;;;13.41;100.00;101411.44;5212957;28;20068;-75
2023/04/11 10:26:52;;;;;;;7.28;1.27;;;;;;;13.55;100.00;101413.41;5218764;28;20421;-76
2023/04/11 10:29:44;;;;;;;10.38;1.73;;;;;;;13.59;100.00;101412.06;5216274;28;20031;-75
2023/04/11 10:32:14;;;;;;;11.18;1.73;;;;;;;13.68;100.00;101416.41;5214551;28;20021;-75
2023/04/11 10:35:22;;;;;;;10.20;2.28;;;;;;;13.76;100.00;101406.63;5217732;28;20394;-75
2023/04/11 10:37:53;;;;;;;7.75;1.73;;;;;;;13.90;100.00;101412.13;5212327;28;20033;-75
2023/04/11 10:40:24;;;;;;;11.00;1.67;;;;;;;13.69;100.00;101417.25;5219544;28;20026;-75
2023/04/11 10:42:56;;;;;;;9.07;1.20;;;;;;;13.39;100.00;101419.66;5216552;28;20088;-75
2023/04/11 10:45:28;;;;;;;6.43;1.60;;;;;;;13.11;100.00;101405.72;5222385;28;20051;-75
2023/04/11 10:48:15;;;;;;;7.82;1.80;;;;;;;13.00;100.00;101399.81;5214545;28;20025;-75
2023/04/11 10:50:46;;;;;;;7.65;1.83;;;;;;;13.03;100.00;101404.88;5203107;28;20032;-75
2023/04/11 10:53:35;;;;;;;10.00;2.22;;;;;;;12.95;100.00;101408.38;5195676;28;20033;-75
2023/04/11 10:56:06;;;;;;;10.50;1.50;;;;;;;12.77;100.00;101400.47;5214905;28;20034;-75
2023/04/11 10:58:38;;;;;;;8.48;1.60;;;;;;;12.74;100.00;101405.34;5205496;28;20082;-75
2023/04/11 11:01:24;;;;;;;11.88;2.58;;;;;;;12.81;100.00;101407.22;5213109;28;20136;-75
2023/04/11 11:03:56;;;;;;;11.55;3.05;;;;;;;13.01;100.00;101406.91;5218619;28;20063;-75
2023/04/11 11:06:27;;;;;;;9.05;1.52;;;;;;;13.27;100.00;101412.13;5213711;28;20469;-75
2023/04/11 11:08:59;;;;;;;13.02;2.13;;;;;;;13.64;100.00;101412.38;5200671;28;20025;-75
2023/04/11 11:11:29;;;;;;;10.27;1.67;;;;;;;13.88;100.00;101406.06;5215546;28;20185;-75
2023/04/11 11:14:00;;;;;;;8.25;1.52;;;;;;;14.32;100.00;101407.41;5218509;28;20049;-75
2023/04/11 11:16:30;;;;;;;9.70;1.67;;;;;;;14.60;100.00;101405.88;5221904;28;20047;-75
2023/04/11 11:19:04;;;;;;;8.27;1.33;;;;;;;14.64;100.00;101411.78;5218669;28;20053;-75
2023/04/11 11:21:35;;;;;;;10.48;1.98;;;;;;;14.31;100.00;101411.09;5198360;28;20405;-75
2023/04/11 11:24:05;;;;;;;8.35;1.27;;;;;;;14.28;100.00;101400.69;5209179;28;20037;-75
2023/04/11 11:26:37;;;;;;;9.75;1.70;;;;;;;14.37;100.00;101399.63;5217760;28;20108;-75
2023/04/11 11:29:09;;;;;;;7.13;1.73;;;;;;;14.41;100.00;101411.75;5192745;28;20029;-75
2023/04/11 11:31:41;;;;;;;7.75;1.30;;;;;;;14.54;100.00;101406.63;5212162;28;20116;-75
2023/04/11 11:34:12;;;;;;;7.78;1.60;;;;;;;14.83;100.00;101397.81;5211166;28;20032;-75